RUG weather

Rugby Municipal Airport
Rugby, North Dakota, United States

Public forecast

Using degrees Fahrenheit for public forecast. Weather courtesy of forecast.io.

Current aviation weather report (METAR) for Rugby Municipal Airport

Retrieved 2020/06/07 05:35 UTC (22 minutes ago):

KRUG 070535Z AUTO 10024G31KT 8SM FEW015 BKN037 OVC075 15/13 A2960 RMK AO2 LTG DSNT SE AND W

Closest aviation forecast (TAF) to Rugby Municipal Airport

Closest forecast is Devils Lake Regional Airport, 47.6 nm (88.1 km) ESE. Retrieved 2020-06-07 00:36 UTC (5 hours ago):

TAF KDVL 062334Z 0700/0724 11022KT P6SM SCT050 BKN100 FM070400 12022G31KT 6SM BR SCT027 OVC100 TEMPO 0704/0706 4SM TSRA BKN027CB FM070900 14021G30KT P6SM SCT011 OVC027 WS020/16050KT FM071000 14021G30KT P6SM SCT008 BKN060 FM071400 16017KT P6SM FEW026 SCT060